createdAt,value
2023-05-10T00:03:47.754Z,15.60
2023-05-10T00:09:49.629Z,15.40
2023-05-10T00:15:51.702Z,15.50
2023-05-10T00:21:53.620Z,15.30
2023-05-10T00:27:56.395Z,15.30
2023-05-10T00:33:58.294Z,15.30
2023-05-10T00:40:00.192Z,15.30
2023-05-10T00:46:02.073Z,15.40
2023-05-10T00:52:04.361Z,15.40
2023-05-10T00:58:06.898Z,15.50
2023-05-10T01:04:10.351Z,15.50
2023-05-10T01:10:12.433Z,15.50
2023-05-10T01:16:14.823Z,15.50
2023-05-10T01:22:53.181Z,15.50
2023-05-10T01:29:08.968Z,15.50
2023-05-10T01:35:27.785Z,15.40
2023-05-10T01:41:42.546Z,15.20
2023-05-10T01:47:59.663Z,15.20
2023-05-10T01:54:06.662Z,15.20
2023-05-10T02:00:09.805Z,15.30
2023-05-10T02:06:14.074Z,15.10
2023-05-10T02:12:18.333Z,14.90
2023-05-10T02:18:20.584Z,14.80
2023-05-10T02:24:23.667Z,14.90
2023-05-10T02:30:28.113Z,15.00
2023-05-10T02:36:31.498Z,15.10
2023-05-10T02:42:36.553Z,15.10
2023-05-10T02:48:39.412Z,14.70
2023-05-10T02:54:51.377Z,14.60
2023-05-10T03:00:55.013Z,14.40
2023-05-10T03:06:57.386Z,14.20
2023-05-10T03:13:20.946Z,14.10
2023-05-10T03:19:33.702Z,14.10
2023-05-10T03:25:36.967Z,14.00
2023-05-10T03:31:40.455Z,13.90
2023-05-10T03:37:43.796Z,14.00
2023-05-10T03:43:46.210Z,13.90
2023-05-10T03:49:48.346Z,13.80
2023-05-10T03:55:50.518Z,13.70
2023-05-10T04:01:52.645Z,13.80
2023-05-10T04:07:54.684Z,13.70
2023-05-10T04:13:56.787Z,13.80
2023-05-10T04:19:58.698Z,13.80
2023-05-10T04:26:02.443Z,13.70
2023-05-10T04:32:04.821Z,13.70
2023-05-10T04:38:06.857Z,13.60
2023-05-10T04:44:08.876Z,13.60
2023-05-10T04:50:11.064Z,13.70
2023-05-10T04:56:12.923Z,13.70
2023-05-10T05:02:15.093Z,13.70
2023-05-10T05:08:17.023Z,13.40
2023-05-10T05:14:19.215Z,13.00
2023-05-10T05:20:21.368Z,12.80
2023-05-10T05:26:23.288Z,12.80
2023-05-10T05:32:26.156Z,12.80
2023-05-10T05:38:28.257Z,12.70
2023-05-10T05:44:30.416Z,12.60
2023-05-10T05:50:45.830Z,12.60
2023-05-10T05:56:55.524Z,12.60
2023-05-10T06:03:00.527Z,12.60
2023-05-10T06:09:06.951Z,12.60
2023-05-10T06:15:10.556Z,12.60
2023-05-10T06:21:12.767Z,12.50
2023-05-10T06:27:14.581Z,12.40
2023-05-10T06:33:17.264Z,12.60
2023-05-10T06:39:19.280Z,12.60
2023-05-10T06:45:22.277Z,12.40
2023-05-10T06:51:24.208Z,12.40
2023-05-10T06:57:31.678Z,12.40
2023-05-10T07:03:34.377Z,12.50
2023-05-10T07:09:36.772Z,12.60
2023-05-10T07:15:39.061Z,12.70
2023-05-10T07:21:43.986Z,12.70
2023-05-10T07:27:46.900Z,12.60
2023-05-10T07:33:50.460Z,12.70
2023-05-10T07:40:04.395Z,12.70
2023-05-10T07:46:06.495Z,13.00
2023-05-10T07:52:08.390Z,13.20
2023-05-10T07:58:10.490Z,13.20
2023-05-10T08:04:12.893Z,13.20
2023-05-10T08:10:15.966Z,13.40
2023-05-10T08:16:18.512Z,13.60
2023-05-10T08:22:20.420Z,13.70
2023-05-10T08:28:22.225Z,13.60
2023-05-10T08:34:25.290Z,13.80
2023-05-10T08:40:27.721Z,14.00
2023-05-10T08:46:31.620Z,13.90
2023-05-10T08:52:37.321Z,13.80
2023-05-10T08:58:40.035Z,13.80
2023-05-10T09:04:42.234Z,14.20
2023-05-10T09:10:48.238Z,14.60
2023-05-10T09:16:50.499Z,14.80
2023-05-10T09:22:52.527Z,14.50
2023-05-10T09:28:56.581Z,14.60
2023-05-10T09:34:58.367Z,14.70
2023-05-10T09:41:03.802Z,14.60
2023-05-10T09:47:05.758Z,14.80
2023-05-10T09:53:07.835Z,15.10
2023-05-10T09:59:13.083Z,15.90
2023-05-10T10:05:15.623Z,16.10
2023-05-10T10:11:18.728Z,16.70
2023-05-10T10:17:21.196Z,17.50
2023-05-10T10:23:23.133Z,17.60
2023-05-10T10:29:35.760Z,17.40
2023-05-10T10:35:38.125Z,17.10
2023-05-10T10:41:51.727Z,17.00
2023-05-10T10:48:22.617Z,16.70
2023-05-10T10:54:30.790Z,16.10
2023-05-10T11:00:34.600Z,15.80
2023-05-10T11:06:37.319Z,15.80
2023-05-10T11:13:11.085Z,16.00
2023-05-10T11:19:14.817Z,16.90
2023-05-10T11:25:16.780Z,17.40
2023-05-10T11:31:19.886Z,17.60
2023-05-10T11:37:21.833Z,18.00
2023-05-10T11:43:29.250Z,17.70
2023-05-10T11:49:31.243Z,18.10
2023-05-10T11:55:35.040Z,17.80
2023-05-10T12:01:37.127Z,17.90
2023-05-10T12:07:39.052Z,17.80
2023-05-10T12:13:42.117Z,18.50
2023-05-10T12:19:44.824Z,17.60
2023-05-10T12:25:46.927Z,17.60
2023-05-10T12:32:00.243Z,17.50
2023-05-10T12:38:02.106Z,18.10
2023-05-10T12:44:04.018Z,18.60
2023-05-10T12:50:06.684Z,19.00
2023-05-10T12:56:08.599Z,18.60
2023-05-10T13:02:11.035Z,18.60
2023-05-10T13:08:12.878Z,18.40
2023-05-10T13:14:15.453Z,17.90
2023-05-10T13:20:19.036Z,17.80
2023-05-10T13:26:21.141Z,17.70
2023-05-10T13:32:23.002Z,17.60
2023-05-10T13:38:24.912Z,17.90
2023-05-10T13:44:26.955Z,17.80
2023-05-10T13:50:28.916Z,17.70
2023-05-10T13:56:30.773Z,17.90
2023-05-10T14:02:32.685Z,18.10
2023-05-10T14:08:35.760Z,18.00
2023-05-10T14:14:37.778Z,17.50
2023-05-10T14:20:39.917Z,17.30
2023-05-10T14:26:41.721Z,16.90
2023-05-10T14:32:43.700Z,16.20
2023-05-10T14:38:45.632Z,15.70
2023-05-10T14:44:47.443Z,15.30
2023-05-10T14:50:50.733Z,15.30
2023-05-10T14:56:52.683Z,15.50
2023-05-10T15:02:54.674Z,15.40
2023-05-10T15:08:57.076Z,15.40
2023-05-10T15:14:58.884Z,15.20
2023-05-10T15:21:01.139Z,15.60
2023-05-10T15:27:03.147Z,15.70
2023-05-10T15:33:05.201Z,15.60
2023-05-10T15:39:07.447Z,15.60
2023-05-10T15:45:10.184Z,15.70
2023-05-10T15:51:12.540Z,15.80
2023-05-10T15:57:14.470Z,16.00
2023-05-10T16:03:16.442Z,15.90
2023-05-10T16:09:18.287Z,15.80
2023-05-10T16:15:21.793Z,15.70
2023-05-10T16:21:24.069Z,15.50
2023-05-10T16:27:28.668Z,15.60
2023-05-10T16:33:30.963Z,15.70
2023-05-10T16:39:32.784Z,15.70
2023-05-10T16:45:35.154Z,15.70
2023-05-10T16:51:37.068Z,15.70
2023-05-10T16:57:38.982Z,15.40
2023-05-10T17:03:40.898Z,15.20
2023-05-10T17:09:43.977Z,15.30
2023-05-10T17:15:47.368Z,15.40
2023-05-10T17:21:49.263Z,15.20
2023-05-10T17:27:51.126Z,15.00
2023-05-10T17:33:53.063Z,15.00
2023-05-10T17:39:54.986Z,14.80
2023-05-10T17:45:56.989Z,14.90
2023-05-10T17:51:58.789Z,15.00
2023-05-10T17:58:01.131Z,15.10
2023-05-10T18:04:03.022Z,15.20
2023-05-10T18:10:05.179Z,14.80
2023-05-10T18:16:08.908Z,15.00
2023-05-10T18:22:11.053Z,14.90
2023-05-10T18:28:13.222Z,14.90
2023-05-10T18:34:15.085Z,14.80
2023-05-10T18:40:18.220Z,14.80
2023-05-10T18:46:20.107Z,14.80
2023-05-10T18:52:22.049Z,14.70
2023-05-10T18:58:24.073Z,14.40
2023-05-10T19:04:26.227Z,14.40
2023-05-10T19:10:28.148Z,14.40
2023-05-10T19:16:30.578Z,14.40
2023-05-10T19:22:45.456Z,14.40
2023-05-10T19:28:52.129Z,14.50
2023-05-10T19:34:54.125Z,14.50
2023-05-10T19:41:00.185Z,14.30
2023-05-10T19:47:02.767Z,14.20
2023-05-10T19:53:05.632Z,14.30
2023-05-10T19:59:08.108Z,14.10
2023-05-10T20:05:10.152Z,14.00
2023-05-10T20:11:12.350Z,14.10
2023-05-10T20:17:14.227Z,14.10
2023-05-10T20:23:17.217Z,14.10
2023-05-10T20:29:18.930Z,13.80
2023-05-10T20:35:20.752Z,13.70
2023-05-10T20:41:22.751Z,13.80
2023-05-10T20:47:24.749Z,13.70
2023-05-10T20:53:26.564Z,13.70
2023-05-10T20:59:28.941Z,13.80
2023-05-10T21:05:31.129Z,13.70
2023-05-10T21:11:36.240Z,13.60
2023-05-10T21:17:38.086Z,13.50
2023-05-10T21:23:39.915Z,13.60
2023-05-10T21:29:41.749Z,13.70
2023-05-10T21:35:44.147Z,13.70
2023-05-10T21:41:46.145Z,13.60
2023-05-10T21:47:48.154Z,13.60
2023-05-10T21:53:50.219Z,13.70
2023-05-10T21:59:52.174Z,13.70
2023-05-10T22:05:53.995Z,13.70
2023-05-10T22:11:55.917Z,13.70
2023-05-10T22:17:57.849Z,13.60
2023-05-10T22:23:59.712Z,13.60
2023-05-10T22:30:01.673Z,13.50
2023-05-10T22:36:03.688Z,13.60
2023-05-10T22:42:05.549Z,13.70
2023-05-10T22:48:09.578Z,13.80
2023-05-10T22:54:11.492Z,13.80
2023-05-10T23:00:14.230Z,13.80
2023-05-10T23:06:16.046Z,13.90
2023-05-10T23:12:17.933Z,13.80
2023-05-10T23:18:19.757Z,13.80
2023-05-10T23:24:21.726Z,13.80
2023-05-10T23:30:23.491Z,13.70
2023-05-10T23:36:25.398Z,13.80
2023-05-10T23:42:27.493Z,13.80
2023-05-10T23:48:29.359Z,13.80
2023-05-10T23:54:31.176Z,13.70
